createdAt,value
2022-07-27T00:01:20.772Z,67.67
2022-07-27T00:03:49.583Z,63.92
2022-07-27T00:06:17.997Z,66.86
2022-07-27T00:08:46.391Z,62.92
2022-07-27T00:11:15.037Z,61.43
2022-07-27T00:13:46.069Z,58.12
2022-07-27T00:16:14.681Z,59.49
2022-07-27T00:18:43.100Z,62.24
2022-07-27T00:21:11.720Z,61.51
2022-07-27T00:23:40.792Z,61.10
2022-07-27T00:26:09.185Z,58.51
2022-07-27T00:28:37.534Z,60.51
2022-07-27T00:31:07.726Z,60.71
2022-07-27T00:33:36.096Z,58.84
2022-07-27T00:36:04.536Z,56.95
2022-07-27T00:38:33.046Z,57.26
2022-07-27T00:41:01.479Z,57.57
2022-07-27T00:43:29.842Z,60.04
2022-07-27T00:45:58.257Z,61.73
2022-07-27T00:48:29.336Z,63.88
2022-07-27T00:50:58.523Z,64.80
2022-07-27T00:53:26.925Z,61.98
2022-07-27T00:55:55.598Z,61.22
2022-07-27T00:58:24.606Z,59.48
2022-07-27T01:00:52.972Z,59.06
2022-07-27T01:03:23.201Z,58.99
2022-07-27T01:05:58.334Z,59.73
2022-07-27T01:08:27.207Z,58.90
2022-07-27T01:10:57.887Z,57.45
2022-07-27T01:13:27.502Z,59.72
2022-07-27T01:18:33.340Z,59.81
2022-07-27T01:21:05.041Z,64.35
2022-07-27T01:23:35.134Z,60.93
2022-07-27T01:26:05.584Z,59.08
2022-07-27T01:28:33.948Z,58.04
2022-07-27T01:31:02.582Z,57.93
2022-07-27T01:33:31.073Z,57.28
2022-07-27T01:35:59.784Z,57.45
2022-07-27T01:38:28.456Z,58.31
2022-07-27T01:40:58.502Z,58.43
2022-07-27T01:43:26.854Z,58.80
2022-07-27T01:45:56.140Z,57.29
2022-07-27T01:48:24.630Z,61.65
2022-07-27T01:50:53.084Z,68.20
2022-07-27T01:53:22.834Z,68.99
2022-07-27T01:55:52.327Z,69.22
2022-07-27T01:58:22.049Z,65.91
2022-07-27T02:00:51.560Z,65.69
2022-07-27T02:03:20.226Z,63.02
2022-07-27T02:05:48.685Z,63.83
2022-07-27T02:08:17.073Z,61.24
2022-07-27T02:10:59.351Z,60.46
2022-07-27T02:13:29.480Z,59.83
2022-07-27T02:15:58.117Z,59.79
2022-07-27T02:18:36.311Z,59.40
2022-07-27T02:21:06.964Z,58.93
2022-07-27T02:23:36.840Z,59.05
2022-07-27T02:26:06.703Z,59.25
2022-07-27T02:28:37.252Z,58.26
2022-07-27T02:31:05.730Z,59.19
2022-07-27T02:33:34.131Z,59.80
2022-07-27T02:36:02.530Z,59.38
2022-07-27T02:38:30.888Z,59.17
2022-07-27T02:40:59.300Z,59.39
2022-07-27T02:43:27.618Z,59.26
2022-07-27T02:45:57.439Z,58.99
2022-07-27T02:48:25.831Z,59.13
2022-07-27T02:50:54.256Z,59.40
2022-07-27T02:53:22.581Z,59.38
2022-07-27T02:55:50.927Z,59.60
2022-07-27T02:58:19.266Z,59.60
2022-07-27T03:00:48.050Z,59.79
2022-07-27T03:03:17.859Z,59.76
2022-07-27T03:05:46.334Z,59.48
2022-07-27T03:08:14.658Z,59.67
2022-07-27T03:10:48.774Z,59.73
2022-07-27T03:13:17.355Z,59.84
2022-07-27T03:15:45.823Z,59.96
2022-07-27T03:18:14.218Z,60.03
2022-07-27T03:20:44.007Z,60.10
2022-07-27T03:23:12.446Z,59.86
2022-07-27T03:25:40.796Z,60.07
2022-07-27T03:28:09.141Z,60.24
2022-07-27T03:30:37.814Z,60.13
2022-07-27T03:33:06.269Z,60.10
2022-07-27T03:35:35.193Z,60.34
2022-07-27T03:38:04.954Z,60.31
2022-07-27T03:40:33.714Z,60.17
2022-07-27T03:43:02.454Z,60.46
2022-07-27T03:45:31.109Z,60.63
2022-07-27T03:47:59.517Z,60.50
2022-07-27T03:50:28.004Z,60.78
2022-07-27T03:52:56.452Z,60.88
2022-07-27T03:55:26.382Z,61.00
2022-07-27T03:57:54.804Z,61.28
2022-07-27T04:00:23.759Z,61.32
2022-07-27T04:02:52.907Z,61.68
2022-07-27T04:05:21.908Z,61.65
2022-07-27T04:07:54.867Z,61.75
2022-07-27T04:10:30.092Z,61.66
2022-07-27T04:13:00.299Z,61.76
2022-07-27T04:15:30.231Z,62.03
2022-07-27T04:17:58.723Z,62.10
2022-07-27T04:20:27.809Z,62.30
2022-07-27T04:22:56.502Z,63.48
2022-07-27T04:25:26.325Z,63.77
2022-07-27T04:27:55.454Z,65.49
2022-07-27T04:30:24.314Z,66.25
2022-07-27T04:32:53.272Z,64.54
2022-07-27T04:35:26.280Z,63.32
2022-07-27T04:37:58.821Z,62.67
2022-07-27T04:40:33.307Z,61.88
2022-07-27T04:43:02.502Z,61.38
2022-07-27T04:45:31.675Z,61.01
2022-07-27T04:48:00.444Z,61.11
2022-07-27T04:50:28.834Z,60.64
2022-07-27T04:52:57.197Z,58.55
2022-07-27T04:55:25.759Z,56.31
2022-07-27T04:57:55.488Z,53.39
2022-07-27T05:00:24.045Z,51.38
2022-07-27T05:02:52.402Z,50.33
2022-07-27T05:05:20.766Z,49.40
2022-07-27T05:07:49.098Z,48.77
2022-07-27T05:10:20.635Z,48.35
2022-07-27T05:12:50.132Z,47.67
2022-07-27T05:15:20.737Z,47.09
2022-07-27T05:17:49.882Z,46.10
2022-07-27T05:20:18.224Z,45.70
2022-07-27T05:22:46.567Z,45.71
2022-07-27T05:25:15.136Z,45.41
2022-07-27T05:27:53.767Z,44.97
2022-07-27T05:30:25.545Z,44.20
2022-07-27T05:32:54.232Z,44.13
2022-07-27T05:35:22.958Z,43.71
2022-07-27T05:37:51.518Z,43.49
2022-07-27T05:40:19.989Z,43.33
2022-07-27T05:42:48.778Z,42.62
2022-07-27T05:45:17.264Z,44.27
2022-07-27T05:47:46.981Z,48.46
2022-07-27T05:50:16.930Z,45.92
2022-07-27T05:52:45.722Z,44.95
2022-07-27T05:55:15.042Z,48.77
2022-07-27T05:57:43.640Z,48.70
2022-07-27T06:00:13.728Z,45.53
2022-07-27T06:02:42.885Z,45.08
2022-07-27T06:05:15.991Z,44.38
2022-07-27T06:08:00.681Z,51.03
2022-07-27T06:10:32.497Z,48.80
2022-07-27T06:13:04.313Z,51.01
2022-07-27T06:15:33.527Z,47.71
2022-07-27T06:18:03.804Z,44.45
2022-07-27T06:20:33.678Z,42.59
2022-07-27T06:23:07.767Z,47.65
2022-07-27T06:25:37.271Z,50.69
2022-07-27T06:28:09.173Z,53.56
2022-07-27T06:30:37.609Z,51.98
2022-07-27T06:33:06.708Z,53.44
2022-07-27T06:35:37.976Z,58.10
2022-07-27T06:38:07.809Z,55.39
2022-07-27T06:40:36.465Z,50.87
2022-07-27T06:43:04.878Z,50.62
2022-07-27T06:45:33.244Z,49.73
2022-07-27T06:48:01.592Z,50.39
2022-07-27T06:50:30.051Z,53.79
2022-07-27T06:52:59.781Z,54.83
2022-07-27T06:55:28.427Z,52.20
2022-07-27T06:57:56.793Z,53.72
2022-07-27T07:00:25.728Z,50.96
2022-07-27T07:02:56.537Z,52.27
2022-07-27T07:05:25.216Z,49.80
2022-07-27T07:07:55.459Z,48.36
2022-07-27T07:10:27.234Z,45.10
2022-07-27T07:12:56.686Z,46.36
2022-07-27T07:15:26.831Z,54.11
2022-07-27T07:17:55.475Z,51.82
2022-07-27T07:20:24.692Z,51.09
2022-07-27T07:22:53.371Z,49.16
2022-07-27T07:25:22.064Z,49.07
2022-07-27T07:27:52.807Z,51.49
2022-07-27T07:30:22.108Z,53.88
2022-07-27T07:32:50.846Z,48.09
2022-07-27T07:35:19.851Z,46.18
2022-07-27T07:37:50.623Z,45.90
2022-07-27T07:43:09.568Z,47.22
2022-07-27T07:45:49.975Z,45.98
2022-07-27T07:48:20.344Z,51.83
2022-07-27T07:50:51.417Z,50.80
2022-07-27T07:53:22.526Z,50.91
2022-07-27T07:55:51.257Z,45.39
2022-07-27T07:58:21.475Z,46.68
2022-07-27T08:00:50.086Z,44.30
2022-07-27T08:03:19.116Z,48.51
2022-07-27T08:05:47.618Z,50.91
2022-07-27T08:08:17.048Z,51.96
2022-07-27T08:10:45.616Z,56.09
2022-07-27T08:13:21.590Z,54.11
2022-07-27T08:15:52.546Z,52.77
2022-07-27T08:18:22.127Z,53.96
2022-07-27T08:20:50.574Z,52.33
2022-07-27T08:23:18.993Z,54.78
2022-07-27T08:25:47.466Z,55.58
2022-07-27T08:28:16.221Z,57.14
2022-07-27T08:30:44.624Z,55.61
2022-07-27T08:33:14.697Z,49.71
2022-07-27T08:35:43.110Z,48.42
2022-07-27T08:38:11.517Z,44.77
2022-07-27T08:40:44.088Z,48.31
2022-07-27T08:43:18.940Z,53.78
2022-07-27T08:45:56.769Z,51.53
2022-07-27T08:48:28.986Z,49.52
2022-07-27T08:50:58.221Z,48.95
2022-07-27T08:53:35.836Z,50.37
2022-07-27T08:56:15.679Z,52.86
2022-07-27T08:58:45.997Z,53.59
2022-07-27T09:01:14.870Z,49.53
2022-07-27T09:03:44.821Z,49.27
2022-07-27T09:06:13.344Z,50.62
2022-07-27T09:08:42.008Z,43.81
2022-07-27T09:11:16.800Z,48.95
2022-07-27T09:13:45.235Z,53.83
2022-07-27T09:16:21.418Z,55.15
2022-07-27T09:19:01.742Z,57.93
2022-07-27T09:21:30.334Z,55.99
2022-07-27T09:24:23.333Z,56.99
2022-07-27T09:27:05.879Z,58.64
2022-07-27T09:29:36.510Z,56.25
2022-07-27T09:32:16.182Z,55.58
2022-07-27T09:34:46.504Z,51.71
2022-07-27T09:37:25.821Z,48.32
2022-07-27T09:40:16.228Z,44.84
2022-07-27T09:43:52.234Z,45.75
2022-07-27T09:46:08.077Z,43.66
2022-07-27T09:48:37.616Z,47.71
2022-07-27T09:51:55.862Z,46.71
2022-07-27T09:54:00.823Z,47.28
2022-07-27T09:56:31.388Z,51.14
2022-07-27T09:59:01.634Z,51.08
2022-07-27T10:01:35.157Z,50.57
2022-07-27T10:04:06.423Z,49.68
2022-07-27T10:07:00.340Z,53.66
2022-07-27T10:09:24.900Z,46.51
2022-07-27T10:11:54.191Z,41.80
2022-07-27T10:14:22.567Z,40.97
2022-07-27T10:16:52.504Z,44.96
2022-07-27T10:19:26.960Z,46.18
2022-07-27T10:21:56.825Z,43.62
2022-07-27T10:24:29.406Z,43.68
2022-07-27T10:26:57.922Z,44.49
2022-07-27T10:29:26.884Z,48.59
2022-07-27T10:32:01.475Z,44.18
2022-07-27T10:34:39.193Z,44.06
2022-07-27T10:37:13.986Z,39.13
2022-07-27T10:39:44.769Z,38.44
2022-07-27T10:42:28.739Z,43.71
2022-07-27T10:45:10.506Z,41.57
2022-07-27T10:47:44.755Z,41.40
2022-07-27T10:50:31.973Z,42.82
2022-07-27T10:53:11.373Z,43.70
2022-07-27T10:55:51.673Z,47.38
2022-07-27T10:58:50.136Z,43.80
2022-07-27T11:01:27.755Z,44.40
2022-07-27T11:03:59.194Z,43.77
2022-07-27T11:06:34.625Z,45.83
2022-07-27T11:11:56.692Z,43.10
2022-07-27T11:14:30.120Z,43.50
2022-07-27T11:17:24.410Z,42.43
2022-07-27T11:19:54.624Z,44.36
2022-07-27T11:23:33.998Z,45.05
2022-07-27T11:25:28.975Z,45.33
2022-07-27T11:27:57.334Z,47.96
2022-07-27T11:30:28.480Z,43.93
2022-07-27T11:32:57.863Z,48.84
2022-07-27T11:35:26.377Z,41.25
2022-07-27T11:38:03.245Z,41.16
2022-07-27T11:43:36.862Z,45.02
2022-07-27T11:46:19.490Z,40.24
2022-07-27T11:49:06.641Z,43.20
2022-07-27T11:51:37.320Z,46.02
2022-07-27T11:54:08.837Z,42.25
2022-07-27T11:56:43.380Z,41.55
2022-07-27T11:59:18.097Z,42.57
2022-07-27T12:01:50.285Z,39.39
2022-07-27T12:04:25.386Z,42.53
2022-07-27T12:07:07.788Z,39.13
2022-07-27T12:09:40.214Z,38.85
2022-07-27T12:12:15.102Z,44.54
2022-07-27T12:14:47.122Z,43.90
2022-07-27T12:17:26.686Z,44.39
2022-07-27T12:20:00.391Z,44.04
2022-07-27T12:22:35.544Z,39.77
2022-07-27T12:25:10.031Z,42.39
2022-07-27T12:27:59.334Z,39.96
2022-07-27T12:30:33.417Z,41.38
2022-07-27T12:33:03.731Z,39.17
2022-07-27T12:35:38.833Z,43.25
2022-07-27T12:38:10.485Z,39.37
2022-07-27T12:40:48.983Z,41.10
2022-07-27T12:43:21.356Z,39.61
2022-07-27T12:45:51.773Z,38.17
2022-07-27T12:48:23.529Z,37.78
2022-07-27T12:51:01.623Z,40.32
2022-07-27T12:53:31.407Z,41.01
2022-07-27T12:56:02.056Z,44.10
2022-07-27T12:58:31.932Z,40.56
2022-07-27T13:01:00.889Z,43.10
2022-07-27T13:03:29.402Z,38.61
2022-07-27T13:05:57.845Z,38.46
2022-07-27T13:08:26.268Z,42.97
2022-07-27T13:10:54.883Z,39.85
2022-07-27T13:13:24.939Z,39.20
2022-07-27T13:15:54.846Z,38.11
2022-07-27T13:18:24.128Z,40.65
2022-07-27T13:20:53.172Z,42.50
2022-07-27T13:23:22.701Z,40.15
2022-07-27T13:25:52.269Z,43.50
2022-07-27T13:28:20.648Z,42.72
2022-07-27T13:30:49.238Z,41.68
2022-07-27T13:33:18.993Z,42.46
2022-07-27T13:35:47.644Z,40.39
2022-07-27T13:38:28.666Z,39.09
2022-07-27T13:40:57.252Z,40.97
2022-07-27T13:43:25.646Z,41.33
2022-07-27T13:45:54.140Z,38.56
2022-07-27T13:48:23.912Z,43.28
2022-07-27T13:50:52.339Z,41.15
2022-07-27T13:53:20.741Z,43.33
2022-07-27T13:55:49.128Z,39.43
2022-07-27T13:58:17.480Z,40.66
2022-07-27T14:00:45.885Z,40.74
2022-07-27T14:03:14.288Z,40.19
2022-07-27T14:05:48.959Z,41.51
2022-07-27T14:08:18.971Z,40.63
2022-07-27T14:10:47.666Z,46.51
2022-07-27T14:13:17.976Z,41.81
2022-07-27T14:15:53.469Z,41.72
2022-07-27T14:18:27.616Z,44.09
2022-07-27T14:21:00.137Z,43.30
2022-07-27T14:23:29.736Z,39.34
2022-07-27T14:25:59.909Z,41.93
2022-07-27T14:28:30.408Z,41.97
2022-07-27T14:31:00.687Z,40.87
2022-07-27T14:33:34.004Z,43.58
2022-07-27T14:36:08.755Z,39.60
2022-07-27T14:38:38.728Z,42.03
2022-07-27T14:41:08.079Z,41.66
2022-07-27T14:43:37.202Z,42.99
2022-07-27T14:46:05.536Z,42.18
2022-07-27T14:49:05.653Z,42.59
2022-07-27T14:51:23.676Z,45.04
2022-07-27T14:53:52.119Z,40.56
2022-07-27T14:56:22.170Z,41.41
2022-07-27T14:58:50.573Z,39.32
2022-07-27T15:01:18.976Z,36.46
2022-07-27T15:03:47.603Z,36.14
2022-07-27T15:06:16.178Z,35.59
2022-07-27T15:08:46.106Z,36.50
2022-07-27T15:11:14.485Z,36.67
2022-07-27T15:13:42.852Z,36.05
2022-07-27T15:16:12.030Z,35.77
2022-07-27T15:18:40.484Z,35.72
2022-07-27T15:21:13.214Z,37.38
2022-07-27T15:23:44.903Z,38.16
2022-07-27T15:26:14.099Z,40.29
2022-07-27T15:28:43.130Z,39.38
2022-07-27T15:31:13.447Z,39.71
2022-07-27T15:33:42.433Z,38.08
2022-07-27T15:36:31.406Z,38.64
2022-07-27T15:39:01.611Z,38.46
2022-07-27T15:41:31.092Z,39.97
2022-07-27T15:44:00.028Z,38.72
2022-07-27T15:46:28.552Z,38.37
2022-07-27T15:48:57.153Z,39.12
2022-07-27T15:51:26.204Z,38.28
2022-07-27T15:53:54.687Z,39.26
2022-07-27T15:56:24.968Z,39.60
2022-07-27T15:58:53.623Z,38.20
2022-07-27T16:01:22.085Z,37.88
2022-07-27T16:03:52.050Z,38.76
2022-07-27T16:06:20.582Z,38.30
2022-07-27T16:08:49.201Z,39.69
2022-07-27T16:11:18.900Z,38.37
2022-07-27T16:13:49.100Z,37.98
2022-07-27T16:16:25.016Z,38.15
2022-07-27T16:18:54.396Z,39.37
2022-07-27T16:21:23.099Z,38.72
2022-07-27T16:23:53.129Z,37.27
2022-07-27T16:26:22.458Z,38.64
2022-07-27T16:28:54.129Z,37.93
2022-07-27T16:31:22.689Z,38.68
2022-07-27T16:33:55.176Z,37.97
2022-07-27T16:36:23.657Z,38.02
2022-07-27T16:38:52.477Z,39.63
2022-07-27T16:41:22.609Z,38.16
2022-07-27T16:43:53.082Z,38.29
2022-07-27T16:46:21.566Z,37.67
2022-07-27T16:48:49.977Z,37.34
2022-07-27T16:51:18.452Z,37.84
2022-07-27T16:53:49.061Z,36.20
2022-07-27T16:56:17.703Z,36.28
2022-07-27T16:58:46.161Z,39.89
2022-07-27T17:01:21.778Z,39.90
2022-07-27T17:03:56.387Z,43.09
2022-07-27T17:06:27.063Z,42.25
2022-07-27T17:08:56.125Z,39.72
2022-07-27T17:11:25.008Z,40.45
2022-07-27T17:13:59.038Z,38.71
2022-07-27T17:16:30.082Z,40.06
2022-07-27T17:18:58.479Z,43.06
2022-07-27T17:21:27.052Z,41.71
2022-07-27T17:23:55.402Z,41.55
2022-07-27T17:26:24.897Z,40.86
2022-07-27T17:28:54.130Z,41.18
2022-07-27T17:31:22.871Z,43.32
2022-07-27T17:33:53.391Z,40.26
2022-07-27T17:36:22.691Z,42.41
2022-07-27T17:38:51.803Z,44.10
2022-07-27T17:41:25.032Z,43.20
2022-07-27T17:43:54.589Z,42.65
2022-07-27T17:46:24.750Z,41.82
2022-07-27T17:48:55.268Z,39.42
2022-07-27T17:51:25.391Z,41.00
2022-07-27T17:53:54.168Z,41.92
2022-07-27T17:56:22.528Z,40.86
2022-07-27T17:58:51.539Z,41.86
2022-07-27T18:01:46.529Z,41.03
2022-07-27T18:04:09.611Z,42.50
2022-07-27T18:06:37.983Z,41.54
2022-07-27T18:09:07.253Z,40.37
2022-07-27T18:11:35.785Z,41.89
2022-07-27T18:14:04.096Z,42.36
2022-07-27T18:16:36.613Z,41.61
2022-07-27T18:19:10.488Z,44.23
2022-07-27T18:21:39.070Z,41.64
2022-07-27T18:24:10.380Z,45.69
2022-07-27T18:26:39.098Z,41.53
2022-07-27T18:29:07.752Z,45.06
2022-07-27T18:31:36.340Z,42.03
2022-07-27T18:34:10.664Z,43.03
2022-07-27T18:36:42.649Z,42.61
2022-07-27T18:39:11.386Z,43.16
2022-07-27T18:41:40.775Z,46.21
2022-07-27T18:44:09.428Z,43.18
2022-07-27T18:46:37.913Z,45.34
2022-07-27T18:49:06.426Z,41.62
2022-07-27T18:51:37.168Z,44.99
2022-07-27T18:54:07.009Z,46.55
2022-07-27T18:56:35.443Z,46.65
2022-07-27T18:59:03.720Z,44.05
2022-07-27T19:01:32.126Z,43.50
2022-07-27T19:04:00.546Z,44.00
2022-07-27T19:06:31.164Z,45.20
2022-07-27T19:08:59.434Z,44.76
2022-07-27T19:11:29.080Z,41.89
2022-07-27T19:13:58.025Z,42.73
2022-07-27T19:16:27.103Z,44.81
2022-07-27T19:18:55.519Z,44.04
2022-07-27T19:21:24.096Z,45.65
2022-07-27T19:23:52.469Z,43.76
2022-07-27T19:26:20.885Z,47.41
2022-07-27T19:28:50.583Z,47.12
2022-07-27T19:31:23.025Z,46.94
2022-07-27T19:33:52.580Z,45.90
2022-07-27T19:36:23.044Z,47.65
2022-07-27T19:38:51.614Z,49.18
2022-07-27T19:41:20.150Z,49.48
2022-07-27T19:43:50.170Z,47.69
2022-07-27T19:46:18.489Z,50.49
2022-07-27T19:48:47.191Z,49.98
2022-07-27T19:51:16.155Z,48.89
2022-07-27T19:53:44.658Z,51.16
2022-07-27T19:56:13.050Z,49.95
2022-07-27T19:58:41.420Z,52.33
2022-07-27T20:01:11.466Z,53.16
2022-07-27T20:03:51.979Z,51.24
2022-07-27T20:06:23.258Z,51.26
2022-07-27T20:08:53.931Z,49.94
2022-07-27T20:11:22.248Z,50.34
2022-07-27T20:13:50.580Z,50.72
2022-07-27T20:16:20.506Z,49.93
2022-07-27T20:18:48.881Z,51.35
2022-07-27T20:21:20.171Z,49.75
2022-07-27T20:23:51.871Z,51.48
2022-07-27T20:26:20.394Z,50.52
2022-07-27T20:28:50.173Z,52.61
2022-07-27T20:31:20.237Z,53.68
2022-07-27T20:33:48.714Z,52.85
2022-07-27T20:36:17.031Z,51.42
2022-07-27T20:38:45.512Z,51.77
2022-07-27T20:41:13.839Z,51.29
2022-07-27T20:43:42.157Z,50.98
2022-07-27T20:46:10.568Z,51.60
2022-07-27T20:48:41.938Z,51.12
2022-07-27T20:51:10.308Z,50.54
2022-07-27T20:53:39.468Z,49.23
2022-07-27T20:56:07.862Z,50.82
2022-07-27T20:58:36.216Z,50.61
2022-07-27T21:01:05.155Z,49.36
2022-07-27T21:03:34.378Z,51.50
2022-07-27T21:06:04.540Z,50.02
2022-07-27T21:08:32.980Z,50.64
2022-07-27T21:11:01.327Z,51.62
2022-07-27T21:13:29.669Z,52.49
2022-07-27T21:15:57.988Z,52.35
2022-07-27T21:18:26.345Z,51.33
2022-07-27T21:20:54.663Z,51.95
2022-07-27T21:23:41.625Z,51.30
2022-07-27T21:26:09.971Z,50.49
2022-07-27T21:28:38.628Z,50.22
2022-07-27T21:31:09.686Z,50.23
2022-07-27T21:33:39.958Z,50.02
2022-07-27T21:36:09.100Z,50.76
2022-07-27T21:38:38.791Z,51.91
2022-07-27T21:41:07.138Z,50.49
2022-07-27T21:43:35.730Z,53.96
2022-07-27T21:46:04.116Z,51.38
2022-07-27T21:48:32.785Z,52.76
2022-07-27T21:51:01.525Z,52.79
2022-07-27T21:53:30.032Z,53.53
2022-07-27T21:55:59.710Z,54.05
2022-07-27T21:58:28.068Z,53.34
2022-07-27T22:00:56.785Z,58.34
2022-07-27T22:03:25.487Z,60.68
2022-07-27T22:05:54.202Z,57.08
2022-07-27T22:08:22.862Z,58.67
2022-07-27T22:10:51.599Z,59.11
2022-07-27T22:13:21.541Z,57.04
2022-07-27T22:15:50.526Z,56.30
2022-07-27T22:18:19.371Z,55.66
2022-07-27T22:20:48.571Z,55.17
2022-07-27T22:23:17.520Z,55.85
2022-07-27T22:25:46.091Z,55.61
2022-07-27T22:28:14.675Z,54.90
2022-07-27T22:31:00.016Z,56.74
2022-07-27T22:33:33.836Z,58.00
2022-07-27T22:36:02.398Z,56.83
2022-07-27T22:38:31.003Z,57.04
2022-07-27T22:40:59.591Z,57.83
2022-07-27T22:43:28.204Z,59.13
2022-07-27T22:45:58.219Z,58.64
2022-07-27T22:48:27.294Z,57.64
2022-07-27T22:50:55.896Z,61.60
2022-07-27T22:53:24.731Z,57.95
2022-07-27T22:55:53.847Z,57.47
2022-07-27T22:58:22.515Z,58.51
2022-07-27T23:00:53.538Z,56.51
2022-07-27T23:03:27.420Z,59.44
2022-07-27T23:05:56.113Z,59.72
2022-07-27T23:08:24.736Z,59.21
2022-07-27T23:10:53.323Z,58.91
2022-07-27T23:13:22.993Z,58.11
2022-07-27T23:15:51.834Z,54.28
2022-07-27T23:18:22.395Z,55.65
2022-07-27T23:20:53.171Z,57.57
2022-07-27T23:23:21.966Z,56.02
2022-07-27T23:25:51.224Z,56.59
2022-07-27T23:28:20.225Z,59.96
2022-07-27T23:30:51.318Z,58.22
2022-07-27T23:33:20.121Z,58.32
2022-07-27T23:35:48.714Z,52.31
2022-07-27T23:38:18.703Z,53.69
2022-07-27T23:40:47.316Z,58.83
2022-07-27T23:43:15.883Z,60.88
2022-07-27T23:45:44.494Z,57.66
2022-07-27T23:48:13.123Z,58.96
2022-07-27T23:50:41.757Z,58.73
2022-07-27T23:53:10.356Z,59.99
2022-07-27T23:55:40.449Z,57.43
2022-07-27T23:58:09.019Z,57.76
